Yona, Guam
Current Conditions -  °F | °C
As of 7:54 PM on Thursday 29 Jan 2015 (Local Time) from PGUM Reporting Station
Clear Clear  
Wind Chill: 80°   Ceiling: Unl
Heat Index: 84°   Visibility: 10mi
Dew Point: 72°   Wind: 7mph
Humidity: 76%   Direction: 50°NE
Pressure: 29.88"   Gusts: NA
Location:  13.41°N, 144.77°E
Report Text: PGUM 290954Z 05006KT 10SM CLR 27/22 A2988 RMK AO2 SLP109 T02670222
Loading
Personal Weather Stations






























Interactive Weather Map New forecast layout! Learn more

10-Day Weather Forecast

Advertisements
Track Severe Weather on mobile